Hauptseite
METAR-TAF:

METAR-TAF

Flughäfen :

Wick Airport

Wick, Schottland

Breite: 58-27N, Länge: 003-05W, Höhe: 39 m

Beobachtung

Neuester Wetterbericht von vor 28 Minuten, um 18:50 UTC
Wind 1 kt aus Süd
Temperatur 12°C
Luftfeuchtigkeit 94%
Luftdruck 1017 hPa
Sichtweite 10 km oder mehr

METAR: EGPC 191850Z AUTO 18001KT 9999 FEW036/// 12/11 Q1017

Zeit: 20:18 (19:18 UTC)

Prognose

Neuester Wetterbericht von vor 2 Stunden und 14 Minuten, um 17:04 UTC
Gültige Prognose vom 19 um 18 UTC bis 20 um 03 UTC
Wind 4 kt aus Ost/Nordost
Sichtweite 10 km oder mehr
Leicht bewölkt in der Höhe von 1500 ft
Aufgelockert bewölkt in der Höhe von 3000 ft
Übergehend zu
vom 20 um 00 UTC bis 20 um 03 UTC
Wind 10 kt aus West

TAF: EGPC 191704Z 1918/2003 07004KT 9999 FEW015 SCT030 BECMG 2000/2003 27010KT

Wetterbeobachtungen und Prognosen von mehr als 4000 Flughäfen (METAR und TAF Bericht).

Die verfügbaren Stationen werden durch gelbe und rote Markierungen auf der Karte dargestellt.

Führen Sie die Maus auf sie, um den Namen der Station zu sehen.

Darauf klicken, um die Beobachtung von Wetterbeobachtungen und Prognosen zu sehen.

Um die Karte zu ändern : klicken Sie auf den grünen Tasten mit einem schwarzen Kreuz Zum Vergrößern, auf den grünen Button mit einem Gedankenstrich zu verkleinern, oder auf die grünen Pfeile für benachbarte Karten.


METAR-TAF: